Odessa, FL

5:05 PM EDT on July 28, 2016 (GMT -0400)
Lake Alice | | Change Station

Elev 46 ft 28.13 °N, 82.60 °W | Updated 14 minutes ago

Partly Cloudy
Partly Cloudy
91.8 °F
Feels Like 99 °F
N
6.3
Wind Variable Wind from SW

Today
High -- | Low -- °F
--% Chance of Precip.
Yesterday
High -- | Low -- °F
Precip. -- in
Pressure 30.01 in
Visibility 10.0 miles
Clouds Few 4500 ft
Few 25000 ft
Heat Index 99 °F
Dew Point 71 °F
Humidity 51%
Rainfall 0.43 in
Snow Depth Not available.
6:50 AM 8:22 PM
Waning Crescent, 29% visible
METAR KTPA 282053Z 28009KT 10SM FEW045 FEW250 33/24 A3001 RMK AO2 SLP161 T03280239 57016
Pressure 30.01 in
Visibility 10.0 miles
Clouds Few 4500 ft
Few 25000 ft
Heat Index 99 °F
Dew Point 71 °F
Humidity 51%
Rainfall 0.43 in
Snow Depth Not available.
6:50 AM 8:22 PM
Waning Crescent, 29% visible
METAR KTPA 282053Z 28009KT 10SM FEW045 FEW250 33/24 A3001 RMK AO2 SLP161 T03280239 57016

10-Day Weather Forecast

Almanac

Astronomy

Jul. 28, 2016 Rise Set
Actual Time
Civil Twilight
Nautical Twilight
Astronomical Twilight
Moon
Length of Visible Light
Length of Day
Tomorrow will be .
, % of the Moon is Illuminated

Today's Extremes

State Highs State Lows

Community

WunderPhotos

Upload Photos

1,928,223 photos uploaded!

WunderBlog® & News

Nearby

Air Quality

  Air Quality AQ Index Pollutant
Not available.

Snow Depth

Station Depth Elevation

Earthquake Activity

City Distance Mag. Time & Date
Minimum magnitude displayed is 2.5.

Coastal Water Temperatures

Place Temperature

Stations

Nearby Weather Stations

Station Location Temp. Windchill Dew Point Humidity Wind Precip. Elev Updated Type
                   

Watches & Warnings

There are currently no watches in effect.